Terminal Aerodrome Forecast
Issued by NWS Charleston, WV

Current Version | Previous Version | Graphics & Text | Print | Product List | Glossary On
Versions: 1 2 3 4 5 6 7 8 9 10 11 12 13 14 15 16 17 18 19 20 21 22 23
001
FTUS41 KRLX 282320
TAFHTS
TAF
KHTS 282320Z 2900/2924 34005KT P6SM SCT025 BKN040
      TEMPO 2901/2903 BKN020
     FM290300 36003KT P6SM BKN015
     FM290600 01002KT P6SM BKN008
     FM291200 02002KT P6SM OVC012
     FM291400 04003KT P6SM BKN020
     FM291800 04005KT P6SM SCT025=

USA.gov is the U.S. government's official web portal to all federal, state and local government web resources and services.